sensor_id;sensor_type;location;lat;lon;timestamp;temperature;humidity
21627;DHT22;10975;47.872;12.972;2022-08-01T00:00:02;20.50;99.90
21627;DHT22;10975;47.872;12.972;2022-08-01T00:02:30;20.50;99.90
21627;DHT22;10975;47.872;12.972;2022-08-01T00:04:57;20.50;99.90
21627;DHT22;10975;47.872;12.972;2022-08-01T00:07:24;20.40;99.90
21627;DHT22;10975;47.872;12.972;2022-08-01T00:09:51;20.40;99.90
21627;DHT22;10975;47.872;12.972;2022-08-01T00:12:18;20.40;99.90
21627;DHT22;10975;47.872;12.972;2022-08-01T00:14:44;20.30;99.90
21627;DHT22;10975;47.872;12.972;2022-08-01T00:17:11;20.20;99.90
21627;DHT22;10975;47.872;12.972;2022-08-01T00:19:38;20.10;99.90
21627;DHT22;10975;47.872;12.972;2022-08-01T00:22:04;20.10;99.90
21627;DHT22;10975;47.872;12.972;2022-08-01T00:24:32;20.00;99.90
21627;DHT22;10975;47.872;12.972;2022-08-01T00:26:58;20.00;99.90
21627;DHT22;10975;47.872;12.972;2022-08-01T00:29:25;19.90;99.90
21627;DHT22;10975;47.872;12.972;2022-08-01T00:32:12;19.90;99.90
21627;DHT22;10975;47.872;12.972;2022-08-01T00:34:39;19.90;99.90
21627;DHT22;10975;47.872;12.972;2022-08-01T00:37:05;19.90;99.90
21627;DHT22;10975;47.872;12.972;2022-08-01T00:39:32;19.90;99.90
21627;DHT22;10975;47.872;12.972;2022-08-01T00:41:59;19.90;99.90
21627;DHT22;10975;47.872;12.972;2022-08-01T00:44:26;19.90;99.90
21627;DHT22;10975;47.872;12.972;2022-08-01T00:46:53;19.90;99.90
21627;DHT22;10975;47.872;12.972;2022-08-01T00:49:20;19.80;99.90
21627;DHT22;10975;47.872;12.972;2022-08-01T00:51:47;19.80;99.90
21627;DHT22;10975;47.872;12.972;2022-08-01T00:54:15;19.80;99.90
21627;DHT22;10975;47.872;12.972;2022-08-01T00:56:42;19.80;99.90
21627;DHT22;10975;47.872;12.972;2022-08-01T00:59:11;19.80;99.90
21627;DHT22;10975;47.872;12.972;2022-08-01T01:01:39;19.80;99.90
21627;DHT22;10975;47.872;12.972;2022-08-01T01:04:12;19.80;99.90
21627;DHT22;10975;47.872;12.972;2022-08-01T01:14:23;19.80;99.90
21627;DHT22;10975;47.872;12.972;2022-08-01T01:16:52;19.80;99.90
21627;DHT22;10975;47.872;12.972;2022-08-01T01:19:20;19.80;99.90
21627;DHT22;10975;47.872;12.972;2022-08-01T01:22:11;19.80;99.90
21627;DHT22;10975;47.872;12.972;2022-08-01T01:30:13;19.70;99.90
21627;DHT22;10975;47.872;12.972;2022-08-01T01:32:43;19.80;99.90
21627;DHT22;10975;47.872;12.972;2022-08-01T01:35:15;19.80;99.90
21627;DHT22;10975;47.872;12.972;2022-08-01T01:37:43;19.80;99.90
21627;DHT22;10975;47.872;12.972;2022-08-01T01:40:12;19.80;99.90
21627;DHT22;10975;47.872;12.972;2022-08-01T01:42:40;19.80;99.90
21627;DHT22;10975;47.872;12.972;2022-08-01T01:45:08;19.70;99.90
21627;DHT22;10975;47.872;12.972;2022-08-01T01:47:36;19.70;99.90
21627;DHT22;10975;47.872;12.972;2022-08-01T01:50:04;19.70;99.90
21627;DHT22;10975;47.872;12.972;2022-08-01T01:52:33;19.80;99.90
21627;DHT22;10975;47.872;12.972;2022-08-01T01:55:00;19.80;99.90
21627;DHT22;10975;47.872;12.972;2022-08-01T01:57:27;19.80;99.90
21627;DHT22;10975;47.872;12.972;2022-08-01T01:59:56;19.80;99.90
21627;DHT22;10975;47.872;12.972;2022-08-01T02:02:23;19.80;99.90
21627;DHT22;10975;47.872;12.972;2022-08-01T02:04:50;19.80;99.90
21627;DHT22;10975;47.872;12.972;2022-08-01T02:07:20;19.80;99.90
21627;DHT22;10975;47.872;12.972;2022-08-01T02:09:47;19.90;99.90
21627;DHT22;10975;47.872;12.972;2022-08-01T02:12:14;19.90;99.90
21627;DHT22;10975;47.872;12.972;2022-08-01T02:14:43;19.80;99.90
21627;DHT22;10975;47.872;12.972;2022-08-01T02:17:11;19.80;99.90
21627;DHT22;10975;47.872;12.972;2022-08-01T02:19:39;19.80;99.90
21627;DHT22;10975;47.872;12.972;2022-08-01T02:22:11;19.80;99.90
21627;DHT22;10975;47.872;12.972;2022-08-01T02:24:52;19.80;99.90
21627;DHT22;10975;47.872;12.972;2022-08-01T02:27:25;19.80;99.90
21627;DHT22;10975;47.872;12.972;2022-08-01T02:29:53;19.80;99.90
21627;DHT22;10975;47.872;12.972;2022-08-01T02:32:36;19.80;99.90
21627;DHT22;10975;47.872;12.972;2022-08-01T02:35:04;19.80;99.90
21627;DHT22;10975;47.872;12.972;2022-08-01T02:37:34;19.70;99.90
21627;DHT22;10975;47.872;12.972;2022-08-01T02:40:08;19.60;99.90
21627;DHT22;10975;47.872;12.972;2022-08-01T02:42:41;19.60;99.90
21627;DHT22;10975;47.872;12.972;2022-08-01T02:45:10;19.50;99.90
21627;DHT22;10975;47.872;12.972;2022-08-01T02:47:37;19.50;99.90
21627;DHT22;10975;47.872;12.972;2022-08-01T02:50:05;19.50;99.90
21627;DHT22;10975;47.872;12.972;2022-08-01T02:52:34;19.50;99.90
21627;DHT22;10975;47.872;12.972;2022-08-01T02:55:01;19.50;99.90
21627;DHT22;10975;47.872;12.972;2022-08-01T02:57:28;19.50;99.90
21627;DHT22;10975;47.872;12.972;2022-08-01T03:00:16;19.50;99.90
21627;DHT22;10975;47.872;12.972;2022-08-01T03:02:43;19.50;99.90
21627;DHT22;10975;47.872;12.972;2022-08-01T03:05:11;19.50;99.90
21627;DHT22;10975;47.872;12.972;2022-08-01T03:07:39;19.50;99.90
21627;DHT22;10975;47.872;12.972;2022-08-01T03:10:07;19.50;99.90
21627;DHT22;10975;47.872;12.972;2022-08-01T03:12:34;19.40;99.90
21627;DHT22;10975;47.872;12.972;2022-08-01T03:15:03;19.40;99.90
21627;DHT22;10975;47.872;12.972;2022-08-01T03:17:31;19.30;99.90
21627;DHT22;10975;47.872;12.972;2022-08-01T03:19:58;19.40;99.90
21627;DHT22;10975;47.872;12.972;2022-08-01T03:22:27;19.30;99.90
21627;DHT22;10975;47.872;12.972;2022-08-01T03:24:55;19.30;99.90
21627;DHT22;10975;47.872;12.972;2022-08-01T03:27:23;19.30;99.90
21627;DHT22;10975;47.872;12.972;2022-08-01T03:29:51;19.30;99.90
21627;DHT22;10975;47.872;12.972;2022-08-01T03:32:19;19.30;99.90
21627;DHT22;10975;47.872;12.972;2022-08-01T03:34:45;19.30;99.90
21627;DHT22;10975;47.872;12.972;2022-08-01T03:37:26;19.30;99.90
21627;DHT22;10975;47.872;12.972;2022-08-01T03:40:04;19.30;99.90
21627;DHT22;10975;47.872;12.972;2022-08-01T03:42:42;19.30;99.90
21627;DHT22;10975;47.872;12.972;2022-08-01T03:45:15;19.30;99.90
21627;DHT22;10975;47.872;12.972;2022-08-01T03:47:45;19.30;99.90
21627;DHT22;10975;47.872;12.972;2022-08-01T03:50:13;19.20;99.90
21627;DHT22;10975;47.872;12.972;2022-08-01T03:52:41;19.20;99.90
21627;DHT22;10975;47.872;12.972;2022-08-01T03:55:09;19.20;99.90
21627;DHT22;10975;47.872;12.972;2022-08-01T03:57:37;19.10;99.90
21627;DHT22;10975;47.872;12.972;2022-08-01T04:00:05;19.10;99.90
21627;DHT22;10975;47.872;12.972;2022-08-01T04:02:34;19.00;99.90
21627;DHT22;10975;47.872;12.972;2022-08-01T04:05:02;19.00;99.90
21627;DHT22;10975;47.872;12.972;2022-08-01T04:07:30;19.00;99.90
21627;DHT22;10975;47.872;12.972;2022-08-01T04:09:57;19.00;99.90
21627;DHT22;10975;47.872;12.972;2022-08-01T04:12:24;19.00;99.90
21627;DHT22;10975;47.872;12.972;2022-08-01T04:14:51;19.00;99.90
21627;DHT22;10975;47.872;12.972;2022-08-01T04:17:17;19.00;99.90
21627;DHT22;10975;47.872;12.972;2022-08-01T04:19:44;19.00;99.90
21627;DHT22;10975;47.872;12.972;2022-08-01T04:22:11;19.10;99.90
21627;DHT22;10975;47.872;12.972;2022-08-01T04:24:39;19.10;99.90
21627;DHT22;10975;47.872;12.972;2022-08-01T04:27:13;19.20;99.90
21627;DHT22;10975;47.872;12.972;2022-08-01T04:29:41;19.20;99.90
21627;DHT22;10975;47.872;12.972;2022-08-01T04:32:09;19.30;99.90
21627;DHT22;10975;47.872;12.972;2022-08-01T04:34:38;19.40;99.90
21627;DHT22;10975;47.872;12.972;2022-08-01T04:37:07;19.40;99.90
21627;DHT22;10975;47.872;12.972;2022-08-01T04:39:35;19.40;99.90
21627;DHT22;10975;47.872;12.972;2022-08-01T04:42:16;19.40;99.90
21627;DHT22;10975;47.872;12.972;2022-08-01T04:44:51;19.40;99.90
21627;DHT22;10975;47.872;12.972;2022-08-01T04:47:18;19.40;99.90
21627;DHT22;10975;47.872;12.972;2022-08-01T04:49:45;19.50;99.90
21627;DHT22;10975;47.872;12.972;2022-08-01T04:52:14;19.60;99.90
21627;DHT22;10975;47.872;12.972;2022-08-01T04:54:50;19.70;99.90
21627;DHT22;10975;47.872;12.972;2022-08-01T04:57:16;19.80;99.90
21627;DHT22;10975;47.872;12.972;2022-08-01T04:59:43;19.90;99.90
21627;DHT22;10975;47.872;12.972;2022-08-01T05:04:37;20.00;99.90
21627;DHT22;10975;47.872;12.972;2022-08-01T05:07:04;20.10;99.90
21627;DHT22;10975;47.872;12.972;2022-08-01T05:09:31;20.10;99.90
21627;DHT22;10975;47.872;12.972;2022-08-01T05:11:59;20.20;99.90
21627;DHT22;10975;47.872;12.972;2022-08-01T05:14:27;20.30;99.90
21627;DHT22;10975;47.872;12.972;2022-08-01T05:16:54;20.30;99.90
21627;DHT22;10975;47.872;12.972;2022-08-01T05:19:21;20.30;99.90
21627;DHT22;10975;47.872;12.972;2022-08-01T05:21:48;20.30;99.90
21627;DHT22;10975;47.872;12.972;2022-08-01T05:24:15;20.30;99.90
21627;DHT22;10975;47.872;12.972;2022-08-01T05:26:42;20.40;99.90
21627;DHT22;10975;47.872;12.972;2022-08-01T05:29:09;20.40;99.90
21627;DHT22;10975;47.872;12.972;2022-08-01T05:31:36;20.50;99.90
21627;DHT22;10975;47.872;12.972;2022-08-01T05:34:03;20.60;99.90
21627;DHT22;10975;47.872;12.972;2022-08-01T05:36:30;20.70;99.90
21627;DHT22;10975;47.872;12.972;2022-08-01T05:38:56;20.70;99.90
21627;DHT22;10975;47.872;12.972;2022-08-01T05:41:23;20.70;99.90
21627;DHT22;10975;47.872;12.972;2022-08-01T05:43:50;20.80;99.90
21627;DHT22;10975;47.872;12.972;2022-08-01T05:46:17;20.70;99.90
21627;DHT22;10975;47.872;12.972;2022-08-01T05:48:43;20.70;99.90
21627;DHT22;10975;47.872;12.972;2022-08-01T05:51:10;20.80;99.90
21627;DHT22;10975;47.872;12.972;2022-08-01T05:53:37;21.00;99.90
21627;DHT22;10975;47.872;12.972;2022-08-01T05:56:04;21.20;99.90
21627;DHT22;10975;47.872;12.972;2022-08-01T05:58:31;21.40;99.90
21627;DHT22;10975;47.872;12.972;2022-08-01T06:00:58;21.50;99.90
21627;DHT22;10975;47.872;12.972;2022-08-01T06:03:25;21.60;99.90
21627;DHT22;10975;47.872;12.972;2022-08-01T06:05:51;21.80;99.90
21627;DHT22;10975;47.872;12.972;2022-08-01T06:08:19;21.80;99.90
21627;DHT22;10975;47.872;12.972;2022-08-01T06:10:46;21.90;99.90
21627;DHT22;10975;47.872;12.972;2022-08-01T06:13:13;21.90;99.90
21627;DHT22;10975;47.872;12.972;2022-08-01T06:15:40;22.00;99.90
21627;DHT22;10975;47.872;12.972;2022-08-01T06:18:07;22.00;99.90
21627;DHT22;10975;47.872;12.972;2022-08-01T06:20:33;22.00;99.90
21627;DHT22;10975;47.872;12.972;2022-08-01T06:23:00;22.10;99.90
21627;DHT22;10975;47.872;12.972;2022-08-01T06:25:37;22.00;99.90
21627;DHT22;10975;47.872;12.972;2022-08-01T06:28:04;22.00;99.90
21627;DHT22;10975;47.872;12.972;2022-08-01T06:30:30;22.00;99.90
21627;DHT22;10975;47.872;12.972;2022-08-01T06:32:57;22.00;99.90
21627;DHT22;10975;47.872;12.972;2022-08-01T06:35:26;22.10;99.90
21627;DHT22;10975;47.872;12.972;2022-08-01T06:37:55;22.00;99.90
21627;DHT22;10975;47.872;12.972;2022-08-01T06:40:22;22.10;99.90
21627;DHT22;10975;47.872;12.972;2022-08-01T06:42:49;22.20;99.90
21627;DHT22;10975;47.872;12.972;2022-08-01T06:45:16;22.20;99.90
21627;DHT22;10975;47.872;12.972;2022-08-01T06:47:43;22.30;99.90
21627;DHT22;10975;47.872;12.972;2022-08-01T06:50:14;22.30;99.90
21627;DHT22;10975;47.872;12.972;2022-08-01T06:52:41;22.30;99.90
21627;DHT22;10975;47.872;12.972;2022-08-01T06:55:08;22.30;99.90
21627;DHT22;10975;47.872;12.972;2022-08-01T06:57:35;22.30;99.90
21627;DHT22;10975;47.872;12.972;2022-08-01T07:00:05;22.30;99.90
21627;DHT22;10975;47.872;12.972;2022-08-01T07:02:37;22.40;99.90
21627;DHT22;10975;47.872;12.972;2022-08-01T07:05:04;22.60;99.90
21627;DHT22;10975;47.872;12.972;2022-08-01T07:07:30;22.60;99.90
21627;DHT22;10975;47.872;12.972;2022-08-01T07:09:57;22.70;99.90
21627;DHT22;10975;47.872;12.972;2022-08-01T07:12:24;22.80;99.90
21627;DHT22;10975;47.872;12.972;2022-08-01T07:14:51;23.10;99.90
21627;DHT22;10975;47.872;12.972;2022-08-01T07:17:18;23.40;99.90
21627;DHT22;10975;47.872;12.972;2022-08-01T07:19:47;23.40;99.90
21627;DHT22;10975;47.872;12.972;2022-08-01T07:22:13;23.50;99.90
21627;DHT22;10975;47.872;12.972;2022-08-01T07:24:49;23.40;99.90
21627;DHT22;10975;47.872;12.972;2022-08-01T07:27:20;23.30;99.90
21627;DHT22;10975;47.872;12.972;2022-08-01T07:29:51;23.20;99.90
21627;DHT22;10975;47.872;12.972;2022-08-01T07:32:19;23.40;99.90
21627;DHT22;10975;47.872;12.972;2022-08-01T07:34:46;23.30;99.90
21627;DHT22;10975;47.872;12.972;2022-08-01T07:37:12;23.30;99.90
21627;DHT22;10975;47.872;12.972;2022-08-01T07:39:39;23.40;99.90
21627;DHT22;10975;47.872;12.972;2022-08-01T07:42:06;23.50;99.90
21627;DHT22;10975;47.872;12.972;2022-08-01T07:44:34;23.50;99.90
21627;DHT22;10975;47.872;12.972;2022-08-01T07:47:02;23.60;99.90
21627;DHT22;10975;47.872;12.972;2022-08-01T07:49:29;23.70;99.90
21627;DHT22;10975;47.872;12.972;2022-08-01T07:51:56;23.80;99.90
21627;DHT22;10975;47.872;12.972;2022-08-01T07:54:38;23.80;99.90
21627;DHT22;10975;47.872;12.972;2022-08-01T07:57:05;23.90;99.90
21627;DHT22;10975;47.872;12.972;2022-08-01T07:59:32;24.00;99.90
21627;DHT22;10975;47.872;12.972;2022-08-01T08:01:59;24.10;99.90
21627;DHT22;10975;47.872;12.972;2022-08-01T08:04:26;24.10;99.90
21627;DHT22;10975;47.872;12.972;2022-08-01T08:06:53;24.10;99.90
21627;DHT22;10975;47.872;12.972;2022-08-01T08:09:20;24.30;99.90
21627;DHT22;10975;47.872;12.972;2022-08-01T08:11:47;24.30;99.90
21627;DHT22;10975;47.872;12.972;2022-08-01T08:14:14;24.30;99.90
21627;DHT22;10975;47.872;12.972;2022-08-01T08:16:42;24.30;99.90
21627;DHT22;10975;47.872;12.972;2022-08-01T08:19:10;24.50;99.90
21627;DHT22;10975;47.872;12.972;2022-08-01T08:21:37;24.70;99.90
21627;DHT22;10975;47.872;12.972;2022-08-01T08:24:04;24.90;99.90
21627;DHT22;10975;47.872;12.972;2022-08-01T08:26:56;24.90;99.90
21627;DHT22;10975;47.872;12.972;2022-08-01T08:29:23;24.80;99.90
21627;DHT22;10975;47.872;12.972;2022-08-01T08:31:51;24.70;99.90
21627;DHT22;10975;47.872;12.972;2022-08-01T08:34:19;24.60;99.90
21627;DHT22;10975;47.872;12.972;2022-08-01T08:36:46;24.50;99.90
21627;DHT22;10975;47.872;12.972;2022-08-01T08:39:15;24.50;99.90
21627;DHT22;10975;47.872;12.972;2022-08-01T08:41:45;24.50;99.90
21627;DHT22;10975;47.872;12.972;2022-08-01T08:44:15;24.50;99.90
21627;DHT22;10975;47.872;12.972;2022-08-01T08:46:43;24.60;99.90
21627;DHT22;10975;47.872;12.972;2022-08-01T08:49:12;24.60;99.90
21627;DHT22;10975;47.872;12.972;2022-08-01T08:51:41;24.80;99.90
21627;DHT22;10975;47.872;12.972;2022-08-01T08:54:10;25.00;99.90
21627;DHT22;10975;47.872;12.972;2022-08-01T08:56:37;25.20;99.90
21627;DHT22;10975;47.872;12.972;2022-08-01T08:59:03;25.20;99.90
21627;DHT22;10975;47.872;12.972;2022-08-01T09:01:31;25.30;99.90
21627;DHT22;10975;47.872;12.972;2022-08-01T09:03:59;25.40;99.90
21627;DHT22;10975;47.872;12.972;2022-08-01T09:06:26;25.40;99.90
21627;DHT22;10975;47.872;12.972;2022-08-01T09:08:53;25.40;99.90
21627;DHT22;10975;47.872;12.972;2022-08-01T09:11:20;25.40;99.90
21627;DHT22;10975;47.872;12.972;2022-08-01T09:16:59;25.20;99.90
21627;DHT22;10975;47.872;12.972;2022-08-01T09:19:26;25.30;99.90
21627;DHT22;10975;47.872;12.972;2022-08-01T09:22:08;25.40;99.90
21627;DHT22;10975;47.872;12.972;2022-08-01T09:24:36;25.50;99.90
21627;DHT22;10975;47.872;12.972;2022-08-01T09:27:24;25.60;99.90
21627;DHT22;10975;47.872;12.972;2022-08-01T09:29:52;25.70;99.90
21627;DHT22;10975;47.872;12.972;2022-08-01T09:32:30;25.70;99.90
21627;DHT22;10975;47.872;12.972;2022-08-01T09:37:47;25.70;99.90
21627;DHT22;10975;47.872;12.972;2022-08-01T09:40:14;25.80;99.90
21627;DHT22;10975;47.872;12.972;2022-08-01T09:42:41;25.80;99.90
21627;DHT22;10975;47.872;12.972;2022-08-01T09:45:08;25.80;99.90
21627;DHT22;10975;47.872;12.972;2022-08-01T09:47:48;25.80;99.90
21627;DHT22;10975;47.872;12.972;2022-08-01T09:50:15;25.80;99.90
21627;DHT22;10975;47.872;12.972;2022-08-01T09:52:48;25.70;99.90
21627;DHT22;10975;47.872;12.972;2022-08-01T09:55:21;25.80;99.90
21627;DHT22;10975;47.872;12.972;2022-08-01T09:57:57;25.90;99.90
21627;DHT22;10975;47.872;12.972;2022-08-01T10:00:27;26.00;99.90
21627;DHT22;10975;47.872;12.972;2022-08-01T10:03:24;25.90;99.90
21627;DHT22;10975;47.872;12.972;2022-08-01T10:05:52;25.90;99.90
21627;DHT22;10975;47.872;12.972;2022-08-01T10:08:20;26.10;99.90
21627;DHT22;10975;47.872;12.972;2022-08-01T10:11:11;26.10;99.90
21627;DHT22;10975;47.872;12.972;2022-08-01T10:13:38;26.00;99.90
21627;DHT22;10975;47.872;12.972;2022-08-01T10:16:06;26.00;99.90
21627;DHT22;10975;47.872;12.972;2022-08-01T10:18:33;26.10;99.90
21627;DHT22;10975;47.872;12.972;2022-08-01T10:21:01;26.10;99.90
21627;DHT22;10975;47.872;12.972;2022-08-01T10:23:34;26.30;99.90
21627;DHT22;10975;47.872;12.972;2022-08-01T10:26:07;26.40;99.90
21627;DHT22;10975;47.872;12.972;2022-08-01T10:28:35;26.20;99.90
21627;DHT22;10975;47.872;12.972;2022-08-01T10:31:05;26.30;99.90
21627;DHT22;10975;47.872;12.972;2022-08-01T10:33:40;26.60;99.90
21627;DHT22;10975;47.872;12.972;2022-08-01T10:36:19;26.70;99.90
21627;DHT22;10975;47.872;12.972;2022-08-01T10:38:48;26.70;99.90
21627;DHT22;10975;47.872;12.972;2022-08-01T10:41:15;26.60;99.90
21627;DHT22;10975;47.872;12.972;2022-08-01T10:43:45;26.80;99.90
21627;DHT22;10975;47.872;12.972;2022-08-01T10:46:12;26.80;99.90
21627;DHT22;10975;47.872;12.972;2022-08-01T10:51:17;26.80;99.90
21627;DHT22;10975;47.872;12.972;2022-08-01T10:53:50;26.80;99.90
21627;DHT22;10975;47.872;12.972;2022-08-01T10:56:23;26.80;99.90
21627;DHT22;10975;47.872;12.972;2022-08-01T10:59:02;26.90;99.90
21627;DHT22;10975;47.872;12.972;2022-08-01T11:01:37;26.90;99.90
21627;DHT22;10975;47.872;12.972;2022-08-01T11:04:13;26.80;99.90
21627;DHT22;10975;47.872;12.972;2022-08-01T11:06:54;26.90;99.90
21627;DHT22;10975;47.872;12.972;2022-08-01T11:09:49;27.20;99.90
21627;DHT22;10975;47.872;12.972;2022-08-01T11:12:20;27.10;99.90
21627;DHT22;10975;47.872;12.972;2022-08-01T11:20:12;26.90;99.90
21627;DHT22;10975;47.872;12.972;2022-08-01T11:25:25;27.10;99.90
21627;DHT22;10975;47.872;12.972;2022-08-01T11:31:24;27.10;99.90
21627;DHT22;10975;47.872;12.972;2022-08-01T11:41:13;27.40;99.90
21627;DHT22;10975;47.872;12.972;2022-08-01T11:43:56;27.50;99.90
21627;DHT22;10975;47.872;12.972;2022-08-01T11:51:56;27.70;99.90
21627;DHT22;10975;47.872;12.972;2022-08-01T11:54:26;27.80;99.90
21627;DHT22;10975;47.872;12.972;2022-08-01T11:57:08;27.70;99.90
21627;DHT22;10975;47.872;12.972;2022-08-01T12:02:28;27.90;99.90
21627;DHT22;10975;47.872;12.972;2022-08-01T12:07:23;28.00;99.90
21627;DHT22;10975;47.872;12.972;2022-08-01T12:15:10;28.30;99.90
21627;DHT22;10975;47.872;12.972;2022-08-01T12:20:24;28.40;99.90
21627;DHT22;10975;47.872;12.972;2022-08-01T12:23:00;28.50;99.90
21627;DHT22;10975;47.872;12.972;2022-08-01T12:25:28;28.50;99.90
21627;DHT22;10975;47.872;12.972;2022-08-01T12:27:58;28.70;99.90
21627;DHT22;10975;47.872;12.972;2022-08-01T12:30:25;28.60;99.90
21627;DHT22;10975;47.872;12.972;2022-08-01T12:32:53;28.90;99.90
21627;DHT22;10975;47.872;12.972;2022-08-01T12:35:21;28.70;99.90
21627;DHT22;10975;47.872;12.972;2022-08-01T12:37:51;28.70;99.90
21627;DHT22;10975;47.872;12.972;2022-08-01T12:40:19;28.70;99.90
21627;DHT22;10975;47.872;12.972;2022-08-01T12:42:50;28.70;99.90
21627;DHT22;10975;47.872;12.972;2022-08-01T12:45:18;29.00;99.90
21627;DHT22;10975;47.872;12.972;2022-08-01T12:47:46;28.90;99.90
21627;DHT22;10975;47.872;12.972;2022-08-01T12:50:19;28.90;99.90
21627;DHT22;10975;47.872;12.972;2022-08-01T12:52:48;28.80;99.90
21627;DHT22;10975;47.872;12.972;2022-08-01T12:55:16;28.80;99.90
21627;DHT22;10975;47.872;12.972;2022-08-01T12:57:45;28.90;99.90
21627;DHT22;10975;47.872;12.972;2022-08-01T13:00:14;29.00;99.90
21627;DHT22;10975;47.872;12.972;2022-08-01T13:02:41;29.10;99.90
21627;DHT22;10975;47.872;12.972;2022-08-01T13:05:08;29.30;99.90
21627;DHT22;10975;47.872;12.972;2022-08-01T13:07:40;29.20;99.90
21627;DHT22;10975;47.872;12.972;2022-08-01T13:10:12;29.30;99.90
21627;DHT22;10975;47.872;12.972;2022-08-01T13:12:39;29.30;99.90
21627;DHT22;10975;47.872;12.972;2022-08-01T13:18:22;29.50;99.90
21627;DHT22;10975;47.872;12.972;2022-08-01T13:20:50;29.60;99.90
21627;DHT22;10975;47.872;12.972;2022-08-01T13:23:32;29.50;99.90
21627;DHT22;10975;47.872;12.972;2022-08-01T13:26:20;29.40;99.90
21627;DHT22;10975;47.872;12.972;2022-08-01T13:29:04;29.30;99.90
21627;DHT22;10975;47.872;12.972;2022-08-01T13:31:32;29.10;99.90
21627;DHT22;10975;47.872;12.972;2022-08-01T13:33:59;29.10;99.90
21627;DHT22;10975;47.872;12.972;2022-08-01T13:36:26;29.00;99.90
21627;DHT22;10975;47.872;12.972;2022-08-01T13:38:57;28.80;99.90
21627;DHT22;10975;47.872;12.972;2022-08-01T13:41:43;28.50;99.90
21627;DHT22;10975;47.872;12.972;2022-08-01T13:44:10;28.40;99.90
21627;DHT22;10975;47.872;12.972;2022-08-01T13:46:37;28.30;99.90
21627;DHT22;10975;47.872;12.972;2022-08-01T13:49:15;28.30;99.90
21627;DHT22;10975;47.872;12.972;2022-08-01T13:51:42;28.40;99.90
21627;DHT22;10975;47.872;12.972;2022-08-01T13:54:09;28.60;99.90
21627;DHT22;10975;47.872;12.972;2022-08-01T13:56:35;28.50;99.90
21627;DHT22;10975;47.872;12.972;2022-08-01T13:59:02;28.80;99.90
21627;DHT22;10975;47.872;12.972;2022-08-01T14:01:29;28.80;99.90
21627;DHT22;10975;47.872;12.972;2022-08-01T14:04:00;28.90;99.90
21627;DHT22;10975;47.872;12.972;2022-08-01T14:06:27;28.90;99.90
21627;DHT22;10975;47.872;12.972;2022-08-01T14:08:54;28.80;99.90
21627;DHT22;10975;47.872;12.972;2022-08-01T14:11:21;28.80;99.90
21627;DHT22;10975;47.872;12.972;2022-08-01T14:13:47;28.90;99.90
21627;DHT22;10975;47.872;12.972;2022-08-01T14:16:14;28.90;99.90
21627;DHT22;10975;47.872;12.972;2022-08-01T14:18:42;29.00;99.90
21627;DHT22;10975;47.872;12.972;2022-08-01T14:21:10;29.10;99.90
21627;DHT22;10975;47.872;12.972;2022-08-01T14:23:36;29.10;99.90
21627;DHT22;10975;47.872;12.972;2022-08-01T14:26:03;29.00;99.90
21627;DHT22;10975;47.872;12.972;2022-08-01T14:28:37;28.90;99.90
21627;DHT22;10975;47.872;12.972;2022-08-01T14:31:05;29.00;99.90
21627;DHT22;10975;47.872;12.972;2022-08-01T14:33:35;29.00;99.90
21627;DHT22;10975;47.872;12.972;2022-08-01T14:36:02;29.10;99.90
21627;DHT22;10975;47.872;12.972;2022-08-01T14:38:49;29.20;99.90
21627;DHT22;10975;47.872;12.972;2022-08-01T14:41:16;29.20;99.00
21627;DHT22;10975;47.872;12.972;2022-08-01T14:43:43;29.20;98.40
21627;DHT22;10975;47.872;12.972;2022-08-01T14:46:10;29.20;99.90
21627;DHT22;10975;47.872;12.972;2022-08-01T14:48:38;29.20;99.90
21627;DHT22;10975;47.872;12.972;2022-08-01T14:51:05;29.20;99.80
21627;DHT22;10975;47.872;12.972;2022-08-01T14:53:33;29.10;97.50
21627;DHT22;10975;47.872;12.972;2022-08-01T14:56:03;29.20;98.60
21627;DHT22;10975;47.872;12.972;2022-08-01T14:58:30;29.40;99.90
21627;DHT22;10975;47.872;12.972;2022-08-01T15:00:57;29.30;99.90
21627;DHT22;10975;47.872;12.972;2022-08-01T15:03:25;29.40;99.80
21627;DHT22;10975;47.872;12.972;2022-08-01T15:05:51;29.30;99.70
21627;DHT22;10975;47.872;12.972;2022-08-01T15:08:18;29.00;98.80
21627;DHT22;10975;47.872;12.972;2022-08-01T15:10:45;28.90;99.00
21627;DHT22;10975;47.872;12.972;2022-08-01T15:13:12;29.00;98.00
21627;DHT22;10975;47.872;12.972;2022-08-01T15:15:39;29.10;99.00
21627;DHT22;10975;47.872;12.972;2022-08-01T15:18:05;29.20;97.50
21627;DHT22;10975;47.872;12.972;2022-08-01T15:20:32;29.30;98.60
21627;DHT22;10975;47.872;12.972;2022-08-01T15:22:59;29.60;97.80
21627;DHT22;10975;47.872;12.972;2022-08-01T15:25:26;29.80;97.50
21627;DHT22;10975;47.872;12.972;2022-08-01T15:28:08;29.70;98.40
21627;DHT22;10975;47.872;12.972;2022-08-01T15:30:34;29.40;98.00
21627;DHT22;10975;47.872;12.972;2022-08-01T15:33:01;29.20;98.10
21627;DHT22;10975;47.872;12.972;2022-08-01T15:35:28;29.00;97.60
21627;DHT22;10975;47.872;12.972;2022-08-01T15:37:55;29.10;98.20
21627;DHT22;10975;47.872;12.972;2022-08-01T15:40:22;29.30;97.80
21627;DHT22;10975;47.872;12.972;2022-08-01T15:42:48;29.30;98.20
21627;DHT22;10975;47.872;12.972;2022-08-01T15:45:15;29.30;99.20
21627;DHT22;10975;47.872;12.972;2022-08-01T15:48:04;29.10;98.30
21627;DHT22;10975;47.872;12.972;2022-08-01T15:50:31;28.60;99.50
21627;DHT22;10975;47.872;12.972;2022-08-01T15:52:58;28.40;99.70
21627;DHT22;10975;47.872;12.972;2022-08-01T15:55:24;28.10;99.90
21627;DHT22;10975;47.872;12.972;2022-08-01T15:57:51;28.00;99.80
21627;DHT22;10975;47.872;12.972;2022-08-01T16:00:18;27.90;99.90
21627;DHT22;10975;47.872;12.972;2022-08-01T16:02:45;27.80;99.90
21627;DHT22;10975;47.872;12.972;2022-08-01T16:05:12;27.60;99.90
21627;DHT22;10975;47.872;12.972;2022-08-01T16:07:42;27.60;99.90
21627;DHT22;10975;47.872;12.972;2022-08-01T16:10:26;27.60;99.90
21627;DHT22;10975;47.872;12.972;2022-08-01T16:12:54;27.50;99.90
21627;DHT22;10975;47.872;12.972;2022-08-01T16:15:20;27.40;99.90
21627;DHT22;10975;47.872;12.972;2022-08-01T16:17:47;27.30;99.90
21627;DHT22;10975;47.872;12.972;2022-08-01T16:20:14;27.70;99.90
21627;DHT22;10975;47.872;12.972;2022-08-01T16:22:41;27.70;99.90
21627;DHT22;10975;47.872;12.972;2022-08-01T16:25:10;27.50;99.90
21627;DHT22;10975;47.872;12.972;2022-08-01T16:27:40;27.30;99.90
21627;DHT22;10975;47.872;12.972;2022-08-01T16:30:07;27.10;99.90
21627;DHT22;10975;47.872;12.972;2022-08-01T16:32:34;27.10;99.90